首页
METAR-TAF:

METAR-TAF

机场 :

達拉斯 / 沃思堡, 得克萨斯州, 美国

达拉斯/沃思堡国际机场

纬度: 32-53-49N, 经度: 097-01-19W, 海拔: 183米

当前天气观测

该预报发布于14分钟前的23:53 UTC
静风
温度 1°C
湿度 25%
气压 1036 hPa
能見度: 16.1公里
天空无云

METAR: KDFW 172353Z 00000KT 10SM CLR 01/M17 A3060 RMK AO2 SLP368 T00061172 10028 21033 58011 $

时间: 18:07 (00:07 UTC)

预报

该预报发布于47分钟前的23:20 UTC
预报有效从18日的 00点(UTC)到 19日的 06点(UTC)
风速6节,风向
能見度: 10公里
天空无云

TAF: KDFW 172320Z 1800/1906 17006KT P6SM SKC

超过4000个机场的气象观测和天气预报(METAR&TAF报告)。

可查询的气象台以黄色和红色小点在地图上表示。

将鼠标移到小点上方,可查看气象台名称。

然后点击查看天气观测和预报。

如需切换地图:点击带黑十字的绿色按钮放大地图;点击带横线的绿色按钮缩小地图;或者点击绿色箭头查看邻近地区的地图。


METAR-TAF: